createdAt,value
2017-08-24T00:00:24.203Z,10.75
2017-08-24T00:02:50.915Z,10.32
2017-08-24T00:05:17.653Z,13.05
2017-08-24T00:07:44.304Z,11.70
2017-08-24T00:10:10.984Z,13.20
2017-08-24T00:12:37.688Z,11.12
2017-08-24T00:15:04.344Z,11.20
2017-08-24T00:17:31.012Z,10.27
2017-08-24T00:19:57.712Z,9.48
2017-08-24T00:22:24.375Z,10.65
2017-08-24T00:24:51.059Z,10.63
2017-08-24T00:27:17.723Z,13.25
2017-08-24T00:29:44.472Z,12.30
2017-08-24T00:32:11.162Z,29.98
2017-08-24T00:34:37.827Z,11.95
2017-08-24T00:37:04.476Z,12.75
2017-08-24T00:39:31.212Z,13.68
2017-08-24T00:41:57.866Z,13.80
2017-08-24T00:44:24.607Z,14.25
2017-08-24T00:46:51.271Z,13.57
2017-08-24T00:49:17.988Z,15.02
2017-08-24T00:51:44.730Z,13.52
2017-08-24T00:54:11.427Z,13.57
2017-08-24T00:56:38.111Z,13.27
2017-08-24T00:59:04.864Z,14.15
2017-08-24T01:01:31.595Z,16.23
2017-08-24T01:03:58.267Z,12.73
2017-08-24T01:06:24.938Z,11.80
2017-08-24T01:08:51.628Z,12.98
2017-08-24T01:11:18.284Z,12.02
2017-08-24T01:13:44.936Z,14.10
2017-08-24T01:16:11.608Z,15.32
2017-08-24T01:18:38.257Z,12.63
2017-08-24T01:21:05.016Z,15.57
2017-08-24T01:23:31.706Z,17.40
2017-08-24T01:25:58.361Z,12.18
2017-08-24T01:28:25.021Z,12.55
2017-08-24T01:30:51.722Z,12.13
2017-08-24T01:33:18.411Z,14.55
2017-08-24T01:35:45.079Z,15.88
2017-08-24T01:38:11.791Z,11.65
2017-08-24T01:40:38.529Z,11.27
2017-08-24T01:43:05.180Z,14.87
2017-08-24T01:45:31.917Z,11.38
2017-08-24T01:47:58.642Z,11.57
2017-08-24T01:50:25.311Z,12.43
2017-08-24T01:52:52.004Z,11.27
2017-08-24T01:55:18.661Z,13.75
2017-08-24T01:57:45.322Z,10.70
2017-08-24T02:00:12.055Z,12.68
2017-08-24T02:02:38.787Z,15.32
2017-08-24T02:05:05.451Z,12.48
2017-08-24T02:07:32.160Z,11.30
2017-08-24T02:09:58.901Z,10.73
2017-08-24T02:12:25.543Z,12.00
2017-08-24T02:14:52.212Z,9.30
2017-08-24T02:17:18.938Z,10.77
2017-08-24T02:19:45.666Z,11.55
2017-08-24T02:22:12.423Z,11.15
2017-08-24T02:24:39.087Z,10.45
2017-08-24T02:27:05.747Z,9.88
2017-08-24T02:29:32.533Z,13.05
2017-08-24T02:31:59.295Z,10.43
2017-08-24T02:34:25.967Z,10.88
2017-08-24T02:36:52.755Z,16.45
2017-08-24T02:39:19.408Z,11.20
2017-08-24T02:41:46.067Z,10.27
2017-08-24T02:44:12.737Z,10.77
2017-08-24T02:46:39.388Z,10.75
2017-08-24T02:49:06.050Z,11.07
2017-08-24T02:51:32.744Z,10.40
2017-08-24T02:53:59.397Z,11.60
2017-08-24T02:56:26.071Z,11.43
2017-08-24T02:58:52.762Z,11.05
2017-08-24T03:01:19.448Z,12.00
2017-08-24T03:03:46.100Z,11.48
2017-08-24T03:06:12.847Z,10.43
2017-08-24T03:08:39.504Z,11.95
2017-08-24T03:11:06.222Z,10.07
2017-08-24T03:13:32.955Z,10.88
2017-08-24T03:15:59.622Z,12.82
2017-08-24T03:18:26.287Z,13.57
2017-08-24T03:20:52.964Z,11.52
2017-08-24T03:23:19.712Z,11.12
2017-08-24T03:25:46.378Z,11.00
2017-08-24T03:28:13.108Z,11.65
2017-08-24T03:30:39.758Z,14.23
2017-08-24T03:33:06.486Z,10.38
2017-08-24T03:35:33.235Z,13.57
2017-08-24T03:37:59.982Z,10.20
2017-08-24T03:40:26.652Z,11.30
2017-08-24T03:42:53.343Z,11.80
2017-08-24T03:45:20.095Z,13.82
2017-08-24T03:47:46.764Z,12.10
2017-08-24T03:50:13.465Z,14.02
2017-08-24T03:52:40.200Z,12.85
2017-08-24T03:55:06.865Z,11.60
2017-08-24T03:57:33.575Z,13.43
2017-08-24T04:00:00.321Z,12.57
2017-08-24T04:02:26.973Z,12.55
2017-08-24T04:04:53.674Z,11.52
2017-08-24T04:07:20.359Z,12.52
2017-08-24T04:09:47.026Z,11.32
2017-08-24T04:12:13.713Z,12.70
2017-08-24T04:14:40.378Z,13.40
2017-08-24T04:17:07.105Z,13.90
2017-08-24T04:19:33.771Z,12.65
2017-08-24T04:22:00.503Z,12.13
2017-08-24T04:24:27.250Z,14.18
2017-08-24T04:26:53.985Z,13.88
2017-08-24T04:29:20.722Z,13.00
2017-08-24T04:31:47.454Z,13.40
2017-08-24T04:34:14.176Z,11.75
2017-08-24T04:36:40.828Z,11.80
2017-08-24T04:39:07.482Z,12.93
2017-08-24T04:41:34.217Z,17.02
2017-08-24T04:44:00.865Z,12.98
2017-08-24T04:46:27.531Z,12.90
2017-08-24T04:48:54.227Z,12.00
2017-08-24T04:51:20.979Z,15.38
2017-08-24T04:53:47.726Z,11.35
2017-08-24T04:56:14.402Z,13.13
2017-08-24T04:58:41.065Z,12.15
2017-08-24T05:01:07.749Z,11.32
2017-08-24T05:03:34.437Z,17.23
2017-08-24T05:06:01.104Z,15.18
2017-08-24T05:08:27.965Z,14.45
2017-08-24T05:10:54.700Z,14.48
2017-08-24T05:13:21.455Z,13.32
2017-08-24T05:15:48.112Z,13.13
2017-08-24T05:18:14.802Z,12.70
2017-08-24T05:20:41.460Z,13.02
2017-08-24T05:23:08.219Z,13.05
2017-08-24T05:25:34.939Z,11.50
2017-08-24T05:28:01.690Z,12.90
2017-08-24T05:30:28.418Z,14.02
2017-08-24T05:32:55.106Z,14.13
2017-08-24T05:35:21.761Z,18.17
2017-08-24T05:37:48.463Z,12.68
2017-08-24T05:40:15.158Z,12.98
2017-08-24T05:42:41.829Z,12.65
2017-08-24T05:45:08.491Z,12.02
2017-08-24T05:47:35.183Z,18.62
2017-08-24T05:50:01.851Z,13.98
2017-08-24T05:52:28.512Z,13.60
2017-08-24T05:54:55.219Z,14.82
2017-08-24T05:57:21.869Z,14.35
2017-08-24T05:59:48.534Z,15.98
2017-08-24T06:02:15.223Z,13.02
2017-08-24T06:04:41.999Z,20.40
2017-08-24T06:07:08.655Z,17.37
2017-08-24T06:09:35.341Z,14.90
2017-08-24T06:12:01.991Z,13.35
2017-08-24T06:14:28.655Z,18.23
2017-08-24T06:16:55.391Z,18.45
2017-08-24T06:19:22.138Z,13.88
2017-08-24T06:21:48.891Z,16.60
2017-08-24T06:24:15.563Z,13.02
2017-08-24T06:26:42.213Z,16.50
2017-08-24T06:29:08.879Z,18.40
2017-08-24T06:31:35.579Z,14.50
2017-08-24T06:34:02.251Z,13.82
2017-08-24T06:36:29.027Z,17.77
2017-08-24T06:38:55.757Z,15.82
2017-08-24T06:41:22.509Z,13.48
2017-08-24T06:43:49.251Z,16.87
2017-08-24T06:46:15.974Z,14.93
2017-08-24T06:48:42.717Z,15.15
2017-08-24T06:51:09.364Z,13.75
2017-08-24T06:53:36.067Z,13.25
2017-08-24T06:56:02.720Z,13.55
2017-08-24T06:58:29.383Z,11.75
2017-08-24T07:00:56.094Z,21.10
2017-08-24T07:03:22.879Z,13.55
2017-08-24T07:05:49.527Z,17.90
2017-08-24T07:08:16.204Z,14.35
2017-08-24T07:10:42.851Z,15.52
2017-08-24T07:13:09.537Z,12.27
2017-08-24T07:15:36.260Z,11.18
2017-08-24T07:18:03.002Z,11.52
2017-08-24T07:20:29.740Z,12.70
2017-08-24T07:22:56.410Z,10.13
2017-08-24T07:25:23.052Z,11.63
2017-08-24T07:27:49.692Z,9.00
2017-08-24T07:30:16.360Z,13.23
2017-08-24T07:32:43.037Z,15.75
2017-08-24T07:35:09.890Z,11.60
2017-08-24T07:37:36.586Z,14.82
2017-08-24T07:40:03.255Z,13.77
2017-08-24T07:42:29.923Z,12.93
2017-08-24T07:44:56.614Z,11.60
2017-08-24T07:47:23.279Z,10.20
2017-08-24T07:49:49.924Z,13.20
2017-08-24T07:52:16.678Z,15.00
2017-08-24T07:54:43.351Z,19.20
2017-08-24T07:57:10.000Z,11.00
2017-08-24T07:59:37.100Z,13.88
2017-08-24T08:02:03.744Z,12.45
2017-08-24T08:04:30.403Z,13.25
2017-08-24T08:06:57.127Z,12.55
2017-08-24T08:09:23.852Z,14.23
2017-08-24T08:11:50.503Z,12.45
2017-08-24T08:14:17.190Z,10.57
2017-08-24T08:16:43.984Z,12.90
2017-08-24T08:19:10.728Z,9.68
2017-08-24T08:21:37.462Z,10.80
2017-08-24T08:24:04.141Z,9.18
2017-08-24T08:26:30.794Z,9.68
2017-08-24T08:28:57.595Z,14.52
2017-08-24T08:31:24.334Z,11.82
2017-08-24T08:33:51.005Z,11.85
2017-08-24T08:36:17.700Z,15.20
2017-08-24T08:38:44.363Z,12.80
2017-08-24T08:41:11.036Z,14.85
2017-08-24T08:43:37.831Z,11.27
2017-08-24T08:46:04.495Z,11.30
2017-08-24T08:48:31.166Z,12.85
2017-08-24T08:50:57.840Z,18.60
2017-08-24T08:53:24.584Z,10.55
2017-08-24T08:55:51.338Z,10.00
2017-08-24T08:58:18.031Z,10.25
2017-08-24T09:00:44.726Z,16.48
2017-08-24T09:03:11.398Z,13.15
2017-08-24T09:05:38.093Z,13.55
2017-08-24T09:08:04.828Z,16.70
2017-08-24T09:10:31.582Z,9.98
2017-08-24T09:12:58.328Z,12.13
2017-08-24T09:15:24.989Z,10.70
2017-08-24T09:17:51.699Z,12.10
2017-08-24T09:20:18.383Z,8.30
2017-08-24T09:22:45.086Z,13.35
2017-08-24T09:25:11.754Z,11.70
2017-08-24T09:27:38.466Z,15.18
2017-08-24T09:30:05.135Z,9.50
2017-08-24T09:32:31.837Z,10.10
2017-08-24T09:34:58.577Z,8.93
2017-08-24T09:37:25.225Z,8.40
2017-08-24T09:39:51.872Z,6.78
2017-08-24T09:42:18.545Z,8.43
2017-08-24T09:44:45.202Z,9.00
2017-08-24T09:47:11.867Z,11.95
2017-08-24T09:49:38.540Z,10.32
2017-08-24T09:52:05.206Z,7.82
2017-08-24T09:54:31.893Z,10.00
2017-08-24T09:56:58.631Z,8.55
2017-08-24T09:59:25.362Z,9.60
2017-08-24T10:01:52.026Z,6.62
2017-08-24T10:04:18.726Z,10.02
2017-08-24T10:06:45.391Z,8.23
2017-08-24T10:09:12.081Z,7.87
2017-08-24T10:11:38.770Z,13.18
2017-08-24T10:14:05.438Z,12.10
2017-08-24T10:16:32.106Z,7.00
2017-08-24T10:18:58.804Z,6.85
2017-08-24T10:21:25.531Z,8.57
2017-08-24T10:23:52.286Z,9.40
2017-08-24T10:26:18.975Z,6.87
2017-08-24T10:28:45.640Z,7.53
2017-08-24T10:31:12.342Z,6.68
2017-08-24T10:33:39.050Z,10.10
2017-08-24T10:36:05.718Z,8.10
2017-08-24T10:38:32.391Z,11.60
2017-08-24T10:40:59.184Z,9.90
2017-08-24T10:43:25.852Z,13.32
2017-08-24T10:45:52.555Z,13.27
2017-08-24T10:48:19.250Z,10.15
2017-08-24T10:50:45.908Z,13.80
2017-08-24T10:53:12.575Z,10.27
2017-08-24T10:55:39.311Z,9.55
2017-08-24T10:58:06.046Z,12.85
2017-08-24T11:00:32.718Z,14.63
2017-08-24T11:02:59.524Z,9.68
2017-08-24T11:05:26.176Z,10.65
2017-08-24T11:07:52.922Z,8.75
2017-08-24T11:10:19.600Z,9.25
2017-08-24T11:12:46.289Z,9.40
2017-08-24T11:15:13.027Z,11.88
2017-08-24T11:17:39.724Z,13.15
2017-08-24T11:20:06.383Z,11.85
2017-08-24T11:22:33.167Z,14.18
2017-08-24T11:24:59.844Z,14.77
2017-08-24T11:27:26.488Z,9.35
2017-08-24T11:29:53.167Z,11.02
2017-08-24T11:32:19.856Z,11.07
2017-08-24T11:34:46.518Z,9.70
2017-08-24T11:37:13.195Z,11.73
2017-08-24T11:39:39.942Z,12.95
2017-08-24T11:42:06.661Z,11.40
2017-08-24T11:44:33.349Z,10.02
2017-08-24T11:47:00.058Z,9.40
2017-08-24T11:49:26.726Z,11.23
2017-08-24T11:51:53.448Z,12.10
2017-08-24T11:54:20.135Z,12.93
2017-08-24T11:56:46.775Z,8.97
2017-08-24T11:59:13.467Z,10.33
2017-08-24T12:01:40.162Z,12.07
2017-08-24T12:04:06.832Z,15.77
2017-08-24T12:06:33.473Z,9.40
2017-08-24T12:09:00.164Z,10.70
2017-08-24T12:11:26.831Z,14.97
2017-08-24T12:13:53.491Z,11.30
2017-08-24T12:16:20.160Z,9.60
2017-08-24T12:18:46.873Z,10.10
2017-08-24T12:21:13.611Z,13.40
2017-08-24T12:23:40.288Z,8.33
2017-08-24T12:26:06.996Z,11.03
2017-08-24T12:28:33.655Z,10.93
2017-08-24T12:31:00.324Z,12.80
2017-08-24T12:33:27.026Z,11.43
2017-08-24T12:35:53.762Z,14.40
2017-08-24T12:38:20.447Z,6.43
2017-08-24T12:40:47.128Z,8.67
2017-08-24T12:43:13.890Z,7.13
2017-08-24T12:45:40.634Z,7.43
2017-08-24T12:48:07.374Z,8.03
2017-08-24T12:50:34.016Z,9.13
2017-08-24T12:53:00.750Z,8.13
2017-08-24T12:55:27.407Z,8.40
2017-08-24T12:57:54.131Z,7.90
2017-08-24T13:00:20.815Z,8.03
2017-08-24T13:02:47.500Z,8.77
2017-08-24T13:05:14.255Z,10.80
2017-08-24T13:07:40.930Z,7.57
2017-08-24T13:10:07.625Z,8.80
2017-08-24T13:12:34.379Z,7.03
2017-08-24T13:15:01.426Z,7.10
2017-08-24T13:17:28.157Z,7.87
2017-08-24T13:19:54.910Z,6.60
2017-08-24T13:22:21.595Z,8.03
2017-08-24T13:24:48.298Z,10.73
2017-08-24T13:27:15.020Z,8.27
2017-08-24T13:29:41.680Z,6.93
2017-08-24T13:32:08.324Z,6.00
2017-08-24T13:34:34.964Z,6.80
2017-08-24T13:37:01.672Z,6.40
2017-08-24T13:39:28.336Z,7.73
2017-08-24T13:41:55.066Z,5.10
2017-08-24T13:44:21.750Z,6.70
2017-08-24T13:46:48.457Z,4.37
2017-08-24T13:49:15.181Z,9.97
2017-08-24T13:51:41.848Z,8.10
2017-08-24T13:54:08.488Z,6.07
2017-08-24T13:56:35.143Z,5.40
2017-08-24T13:59:01.828Z,6.07
2017-08-24T14:01:28.595Z,4.67
2017-08-24T14:03:55.236Z,5.60
2017-08-24T14:06:21.931Z,5.87
2017-08-24T14:08:48.573Z,7.50
2017-08-24T14:11:15.212Z,3.57
2017-08-24T14:13:41.876Z,5.37
2017-08-24T14:16:08.635Z,4.33
2017-08-24T14:18:35.352Z,7.53
2017-08-24T14:21:02.034Z,6.67
2017-08-24T14:23:28.696Z,5.23
2017-08-24T14:25:55.370Z,5.50
2017-08-24T14:28:22.130Z,5.00
2017-08-24T14:30:48.792Z,3.93
2017-08-24T14:33:15.452Z,4.53
2017-08-24T14:35:42.129Z,7.90
2017-08-24T14:38:08.884Z,4.93
2017-08-24T14:40:35.527Z,4.63
2017-08-24T14:43:02.218Z,3.40
2017-08-24T14:45:28.919Z,8.27
2017-08-24T14:47:55.564Z,4.43
2017-08-24T14:50:22.291Z,4.60
2017-08-24T14:52:49.039Z,3.97
2017-08-24T14:55:15.695Z,6.23
2017-08-24T14:57:42.360Z,5.33
2017-08-24T15:00:09.015Z,4.30
2017-08-24T15:02:35.697Z,4.40
2017-08-24T15:05:02.372Z,9.10
2017-08-24T15:07:29.070Z,3.13
2017-08-24T15:09:55.717Z,4.27
2017-08-24T15:12:22.399Z,7.57
2017-08-24T15:14:49.080Z,3.23
2017-08-24T15:17:15.730Z,3.53
2017-08-24T15:19:42.392Z,3.87
2017-08-24T15:22:09.109Z,4.43
2017-08-24T15:24:35.751Z,5.60
2017-08-24T15:27:02.441Z,6.90
2017-08-24T15:29:29.148Z,5.53
2017-08-24T15:31:55.807Z,4.83
2017-08-24T15:34:22.478Z,3.40
2017-08-24T15:36:49.120Z,4.47
2017-08-24T15:39:15.755Z,5.10
2017-08-24T15:41:42.516Z,5.30
2017-08-24T15:44:09.179Z,5.53
2017-08-24T15:46:35.834Z,3.60
2017-08-24T15:49:02.536Z,4.80
2017-08-24T15:51:29.195Z,3.30
2017-08-24T15:53:55.937Z,3.40
2017-08-24T15:56:22.978Z,3.00
2017-08-24T15:58:49.638Z,4.50
2017-08-24T16:01:16.280Z,4.50
2017-08-24T16:03:42.988Z,4.27
2017-08-24T16:06:09.639Z,4.60
2017-08-24T16:08:36.287Z,3.90
2017-08-24T16:11:03.010Z,5.53
2017-08-24T16:13:29.667Z,6.70
2017-08-24T16:15:56.399Z,3.87
2017-08-24T16:18:23.086Z,3.20
2017-08-24T16:20:49.754Z,5.70
2017-08-24T16:23:16.423Z,4.40
2017-08-24T16:25:43.099Z,4.55
2017-08-24T16:28:09.776Z,2.97
2017-08-24T16:30:36.443Z,4.40
2017-08-24T16:33:03.120Z,7.10
2017-08-24T16:35:29.787Z,5.75
2017-08-24T16:37:56.547Z,3.50
2017-08-24T16:40:23.307Z,3.08
2017-08-24T16:42:50.032Z,6.97
2017-08-24T16:45:16.699Z,3.37
2017-08-24T16:47:43.412Z,5.95
2017-08-24T16:50:10.083Z,8.48
2017-08-24T16:52:36.736Z,4.78
2017-08-24T16:55:03.422Z,8.35
2017-08-24T16:57:30.164Z,7.95
2017-08-24T16:59:56.908Z,7.10
2017-08-24T17:02:23.594Z,5.43
2017-08-24T17:04:50.248Z,10.57
2017-08-24T17:07:16.908Z,9.07
2017-08-24T17:09:43.580Z,3.72
2017-08-24T17:12:10.317Z,4.30
2017-08-24T17:14:37.070Z,4.45
2017-08-24T17:17:03.746Z,6.57
2017-08-24T17:19:30.384Z,3.50
2017-08-24T17:21:57.090Z,3.62
2017-08-24T17:24:23.770Z,4.80
2017-08-24T17:26:50.459Z,5.47
2017-08-24T17:29:17.104Z,6.50
2017-08-24T17:31:43.783Z,8.63
2017-08-24T17:34:10.429Z,6.80
2017-08-24T17:36:37.112Z,8.07
2017-08-24T17:39:03.805Z,4.68
2017-08-24T17:41:30.452Z,4.47
2017-08-24T17:43:57.152Z,5.90
2017-08-24T17:46:23.835Z,6.35
2017-08-24T17:48:50.518Z,4.00
2017-08-24T17:51:17.196Z,3.70
2017-08-24T17:53:43.868Z,6.20
2017-08-24T17:56:10.521Z,5.65
2017-08-24T17:58:37.156Z,3.90
2017-08-24T18:01:03.836Z,5.80
2017-08-24T18:03:30.571Z,7.18
2017-08-24T18:05:57.312Z,6.43
2017-08-24T18:08:23.976Z,4.55
2017-08-24T18:10:50.632Z,5.50
2017-08-24T18:13:17.292Z,5.15
2017-08-24T18:15:43.979Z,5.37
2017-08-24T18:18:10.642Z,4.78
2017-08-24T18:20:37.342Z,6.32
2017-08-24T18:23:04.067Z,4.30
2017-08-24T18:25:30.713Z,7.15
2017-08-24T18:27:57.367Z,5.80
2017-08-24T18:30:24.128Z,8.35
2017-08-24T18:32:50.776Z,6.85
2017-08-24T18:35:17.487Z,7.43
2017-08-24T18:37:44.183Z,3.72
2017-08-24T18:40:10.843Z,7.30
2017-08-24T18:42:37.503Z,5.00
2017-08-24T18:45:04.177Z,5.57
2017-08-24T18:47:30.827Z,12.10
2017-08-24T18:49:57.526Z,7.12
2017-08-24T18:52:24.211Z,4.68
2017-08-24T18:54:50.910Z,6.43
2017-08-24T18:57:17.578Z,5.60
2017-08-24T18:59:44.265Z,5.05
2017-08-24T19:02:11.025Z,9.15
2017-08-24T19:04:37.783Z,4.57
2017-08-24T19:07:04.460Z,8.35
2017-08-24T19:09:31.100Z,9.80
2017-08-24T19:11:57.780Z,10.60
2017-08-24T19:14:24.530Z,7.03
2017-08-24T19:16:51.180Z,4.45
2017-08-24T19:19:17.827Z,4.53
2017-08-24T19:21:44.532Z,7.28
2017-08-24T19:24:11.281Z,9.23
2017-08-24T19:26:38.035Z,5.20
2017-08-24T19:29:04.716Z,8.57
2017-08-24T19:31:31.424Z,6.00
2017-08-24T19:33:58.073Z,5.25
2017-08-24T19:36:24.749Z,4.55
2017-08-24T19:38:51.420Z,7.95
2017-08-24T19:41:18.071Z,6.78
2017-08-24T19:43:44.804Z,7.93
2017-08-24T19:46:11.458Z,4.45
2017-08-24T19:48:38.111Z,4.43
2017-08-24T19:51:05.757Z,3.33
2017-08-24T19:53:32.419Z,4.28
2017-08-24T19:55:59.059Z,7.05
2017-08-24T19:58:25.759Z,9.00
2017-08-24T20:00:52.514Z,6.12
2017-08-24T20:03:19.259Z,4.20
2017-08-24T20:05:45.933Z,5.10
2017-08-24T20:08:12.624Z,4.75
2017-08-24T20:10:39.274Z,8.38
2017-08-24T20:13:06.022Z,3.87
2017-08-24T20:15:32.750Z,8.82
2017-08-24T20:17:59.396Z,14.13
2017-08-24T20:20:26.142Z,12.48
2017-08-24T20:22:52.868Z,5.00
2017-08-24T20:25:19.614Z,8.40
2017-08-24T20:27:46.355Z,9.48
2017-08-24T20:30:13.111Z,8.55
2017-08-24T20:32:39.851Z,4.40
2017-08-24T20:35:06.540Z,7.32
2017-08-24T20:37:33.207Z,7.80
2017-08-24T20:39:59.874Z,5.30
2017-08-24T20:42:26.544Z,5.47
2017-08-24T20:44:53.231Z,5.22
2017-08-24T20:47:19.886Z,5.72
2017-08-24T20:49:46.626Z,8.13
2017-08-24T20:52:13.282Z,6.60
2017-08-24T20:54:39.998Z,6.47
2017-08-24T20:57:06.679Z,6.97
2017-08-24T20:59:33.324Z,6.70
2017-08-24T21:02:00.019Z,8.75
2017-08-24T21:04:26.723Z,6.82
2017-08-24T21:06:53.410Z,9.38
2017-08-24T21:09:20.154Z,8.00
2017-08-24T21:11:46.896Z,14.20
2017-08-24T21:14:13.550Z,9.02
2017-08-24T21:16:40.261Z,13.48
2017-08-24T21:19:06.957Z,7.68
2017-08-24T21:21:33.638Z,8.40
2017-08-24T21:24:00.289Z,7.82
2017-08-24T21:26:26.974Z,8.88
2017-08-24T21:28:53.620Z,9.10
2017-08-24T21:31:20.260Z,8.73
2017-08-24T21:33:46.943Z,8.65
2017-08-24T21:36:13.602Z,7.22
2017-08-24T21:38:40.341Z,11.05
2017-08-24T21:41:07.023Z,5.90
2017-08-24T21:43:33.700Z,6.03
2017-08-24T21:46:00.359Z,7.10
2017-08-24T21:48:27.085Z,4.72
2017-08-24T21:50:53.747Z,7.53
2017-08-24T21:53:20.462Z,7.65
2017-08-24T21:55:47.143Z,5.32
2017-08-24T21:58:13.840Z,8.45
2017-08-24T22:00:40.476Z,6.90
2017-08-24T22:03:07.235Z,6.05
2017-08-24T22:05:33.929Z,6.75
2017-08-24T22:08:00.585Z,9.20
2017-08-24T22:10:27.270Z,12.70
2017-08-24T22:12:53.985Z,8.68
2017-08-24T22:15:20.644Z,8.00
2017-08-24T22:17:47.319Z,11.77
2017-08-24T22:20:13.995Z,7.50
2017-08-24T22:22:40.637Z,8.68
2017-08-24T22:25:07.380Z,9.55
2017-08-24T22:27:34.020Z,6.62
2017-08-24T22:30:00.780Z,17.05
2017-08-24T22:32:27.507Z,10.13
2017-08-24T22:34:54.244Z,8.38
2017-08-24T22:37:21.003Z,6.72
2017-08-24T22:39:47.672Z,8.70
2017-08-24T22:42:14.369Z,7.50
2017-08-24T22:44:41.124Z,9.32
2017-08-24T22:47:07.819Z,8.80
2017-08-24T22:49:34.502Z,9.50
2017-08-24T22:52:01.140Z,7.07
2017-08-24T22:54:33.520Z,11.60
2017-08-24T22:57:06.062Z,8.40
2017-08-24T22:59:51.560Z,7.00
2017-08-24T23:02:24.068Z,11.75
2017-08-24T23:04:50.716Z,7.45
2017-08-24T23:07:17.386Z,8.43
2017-08-24T23:09:44.051Z,10.25
2017-08-24T23:12:10.815Z,14.20
2017-08-24T23:14:37.460Z,7.72
2017-08-24T23:17:04.104Z,10.02
2017-08-24T23:19:30.811Z,7.87
2017-08-24T23:21:57.464Z,10.40
2017-08-24T23:24:24.127Z,11.57
2017-08-24T23:26:50.850Z,6.55
2017-08-24T23:29:17.501Z,6.95
2017-08-24T23:31:44.163Z,6.82
2017-08-24T23:34:10.842Z,6.85
2017-08-24T23:36:37.502Z,8.68
2017-08-24T23:39:04.140Z,6.53
2017-08-24T23:41:30.832Z,9.05
2017-08-24T23:43:57.490Z,10.15
2017-08-24T23:46:24.152Z,5.87
2017-08-24T23:48:50.827Z,6.78
2017-08-24T23:51:17.464Z,5.18
2017-08-24T23:53:44.132Z,5.15
2017-08-24T23:56:10.800Z,6.90
2017-08-24T23:58:37.440Z,6.40
